Time;durP1;ratioP1;P1;durP2;ratioP2;P2;SDS_P1;SDS_P2;PMS_P1;PMS_P2;Temp;Humidity;BMP_temperature;BMP_pressure;BME280_temperature;BME280_humidity;BME280_pressure;Samples;Min_cycle;Max_cycle;Signal;HPM_P1;HPM_P2
2022/07/08 00:01:04;;;;;;;9.43;2.10;;;;;;;15.61;73.81;102934.25;5097953;28;20281;-59
2022/07/08 00:03:29;;;;;;;10.02;2.20;;;;;;;15.56;74.11;102930.78;5097880;28;20169;-59
2022/07/08 00:05:54;;;;;;;7.35;2.33;;;;;;;15.61;73.92;102928.97;5097851;28;20383;-59
2022/07/08 00:08:20;;;;;;;10.60;2.40;;;;;;;15.59;74.33;102927.22;5097765;28;20028;-59
2022/07/08 00:10:45;;;;;;;10.52;2.63;;;;;;;15.59;74.34;102932.50;5097349;28;20106;-59
2022/07/08 00:13:11;;;;;;;7.05;2.00;;;;;;;15.55;74.62;102934.28;5097253;28;20047;-59
2022/07/08 00:15:36;;;;;;;11.15;2.28;;;;;;;15.52;74.34;102930.72;5097673;28;20106;-59
2022/07/08 00:18:01;;;;;;;7.55;2.58;;;;;;;15.49;74.29;102928.09;5097208;28;20034;-59
2022/07/08 00:20:27;;;;;;;5.68;2.17;;;;;;;15.46;74.62;102928.09;5097595;28;20028;-59
2022/07/08 00:22:52;;;;;;;9.48;2.45;;;;;;;15.39;74.71;102921.94;5097214;28;20035;-59
2022/07/08 00:25:17;;;;;;;7.65;2.05;;;;;;;15.41;74.91;102928.06;5097364;28;20059;-59
2022/07/08 00:27:43;;;;;;;9.35;2.17;;;;;;;15.37;75.66;102931.63;5097689;28;20063;-58
2022/07/08 00:30:09;;;;;;;12.88;2.92;;;;;;;15.38;74.66;102941.28;5097212;28;20028;-58
2022/07/08 00:32:37;;;;;;;6.18;2.20;;;;;;;15.37;75.11;102931.63;5097272;28;20514;-58
2022/07/08 00:35:02;;;;;;;10.25;2.67;;;;;;;15.35;75.02;102937.78;5097108;28;20397;-57
2022/07/08 00:37:28;;;;;;;11.38;2.38;;;;;;;15.35;75.51;102927.22;5096855;28;20030;-58
2022/07/08 00:39:53;;;;;;;9.05;2.47;;;;;;;15.29;74.87;102921.06;5097284;28;20465;-58
2022/07/08 00:42:18;;;;;;;10.95;2.47;;;;;;;15.27;75.24;102938.63;5097365;28;20092;-58
2022/07/08 00:44:43;;;;;;;7.57;2.25;;;;;;;15.17;75.74;102936.00;5096909;28;20335;-58
2022/07/08 00:47:09;;;;;;;11.27;2.20;;;;;;;15.08;75.58;102933.34;5096884;28;20115;-58
2022/07/08 00:49:34;;;;;;;11.18;2.35;;;;;;;15.05;76.47;102938.63;5096994;28;20040;-58
2022/07/08 00:51:59;;;;;;;8.73;2.20;;;;;;;14.93;77.01;102935.06;5096875;28;20032;-58
2022/07/08 00:54:25;;;;;;;7.30;2.20;;;;;;;14.93;76.95;102940.34;5096517;28;20115;-59
2022/07/08 00:56:50;;;;;;;9.88;2.45;;;;;;;14.88;77.09;102950.03;5096768;28;20392;-59
2022/07/08 00:59:16;;;;;;;7.57;2.35;;;;;;;14.84;77.74;102952.63;5096701;28;20434;-58
2022/07/08 01:01:41;;;;;;;7.60;2.00;;;;;;;14.75;78.67;102945.56;5096682;28;20039;-58
2022/07/08 01:04:07;;;;;;;11.57;2.67;;;;;;;14.74;78.18;102946.44;5096842;28;20032;-58
2022/07/08 01:06:33;;;;;;;6.28;2.25;;;;;;;14.70;78.96;102944.69;5096568;28;20032;-58
2022/07/08 01:08:58;;;;;;;11.68;2.55;;;;;;;14.60;79.23;102953.44;5078390;28;20349;-58
2022/07/08 01:11:25;;;;;;;8.63;2.58;;;;;;;14.52;79.62;102947.28;5096301;28;20028;-58
2022/07/08 01:13:51;;;;;;;7.95;2.28;;;;;;;14.50;79.61;102942.00;5096319;28;20137;-58
2022/07/08 01:16:17;;;;;;;8.43;2.67;;;;;;;14.49;80.06;102955.16;5096552;28;20347;-58
2022/07/08 01:18:42;;;;;;;8.10;2.63;;;;;;;14.39;80.39;102951.56;5096355;28;20043;-58
2022/07/08 01:21:08;;;;;;;7.85;2.30;;;;;;;14.36;80.75;102945.41;5096499;28;20097;-59
2022/07/08 01:23:34;;;;;;;6.20;2.25;;;;;;;14.34;80.63;102944.53;5096031;28;20032;-58
2022/07/08 01:26:03;;;;;;;8.70;2.45;;;;;;;14.28;80.87;102942.72;5095896;28;20469;-58
2022/07/08 01:28:28;;;;;;;8.75;2.30;;;;;;;14.22;81.70;102945.31;5096218;28;20059;-58
2022/07/08 01:30:54;;;;;;;8.93;2.45;;;;;;;14.19;81.46;102947.97;5095978;28;20058;-58
2022/07/08 01:33:19;;;;;;;8.85;2.10;;;;;;;14.16;81.65;102942.69;5096066;28;20028;-58
2022/07/08 01:35:44;;;;;;;8.35;2.40;;;;;;;14.17;81.52;102936.53;5095920;28;20071;-58
2022/07/08 01:38:10;;;;;;;10.45;2.53;;;;;;;14.12;81.75;102943.53;5095961;28;20058;-58
2022/07/08 01:40:35;;;;;;;11.48;2.55;;;;;;;14.08;82.03;102947.00;5095796;28;20431;-58
2022/07/08 01:43:01;;;;;;;9.35;2.80;;;;;;;14.01;82.48;102950.50;5095806;28;20118;-59
2022/07/08 01:45:26;;;;;;;9.10;2.40;;;;;;;13.95;82.72;102940.78;5095712;28;20081;-58
2022/07/08 01:47:51;;;;;;;7.95;2.80;;;;;;;13.89;82.91;102933.72;5095244;28;20368;-57
2022/07/08 01:50:17;;;;;;;9.98;2.70;;;;;;;13.84;83.19;102940.75;5095462;28;20129;-58
2022/07/08 01:52:42;;;;;;;6.53;2.70;;;;;;;13.85;83.31;102937.22;5095505;28;20032;-58
2022/07/08 01:55:07;;;;;;;7.88;2.55;;;;;;;13.75;83.77;102927.50;5095219;28;20046;-58
2022/07/08 01:57:34;;;;;;;8.23;2.63;;;;;;;13.69;84.17;102930.09;5095699;28;20024;-58
2022/07/08 02:00:00;;;;;;;9.07;2.70;;;;;;;13.65;84.64;102925.69;5095504;28;20097;-58
2022/07/08 02:02:25;;;;;;;10.18;2.58;;;;;;;13.61;84.65;102928.28;5095777;28;20104;-57
2022/07/08 02:04:50;;;;;;;11.65;2.47;;;;;;;13.61;84.77;102928.28;5095492;28;20040;-57
2022/07/08 02:07:16;;;;;;;6.32;2.40;;;;;;;13.59;84.80;102929.16;5094992;28;20028;-57
2022/07/08 02:09:42;;;;;;;9.65;2.80;;;;;;;13.56;84.83;102926.50;5095669;28;20370;-58
2022/07/08 02:12:20;;;;;;;9.43;2.60;;;;;;;13.62;84.76;102938.81;5095342;28;20028;-57
2022/07/08 02:14:54;;;;;;;8.95;2.95;;;;;;;13.55;85.17;102942.25;5095264;28;20449;-58
2022/07/08 02:17:21;;;;;;;10.63;2.67;;;;;;;13.63;85.10;102935.31;5095108;28;20016;-58
2022/07/08 02:19:48;;;;;;;8.05;2.35;;;;;;;13.65;85.68;102940.59;5095271;28;20043;-57
2022/07/08 02:22:14;;;;;;;9.32;2.83;;;;;;;13.72;85.25;102930.09;5095417;28;20028;-57
2022/07/08 02:24:39;;;;;;;14.35;2.97;;;;;;;13.72;85.78;102943.25;5094961;28;20043;-57
2022/07/08 02:27:06;;;;;;;6.28;2.70;;;;;;;13.76;85.41;102938.91;5094918;28;20075;-58
2022/07/08 02:29:31;;;;;;;9.48;2.70;;;;;;;13.73;85.97;102949.41;5095073;28;20028;-57
2022/07/08 02:31:58;;;;;;;7.43;3.00;;;;;;;13.77;85.37;102941.56;5095340;28;20031;-57
2022/07/08 02:34:23;;;;;;;11.90;3.20;;;;;;;13.76;85.02;102944.16;5094491;28;20039;-58
2022/07/08 02:36:49;;;;;;;10.63;3.15;;;;;;;13.76;85.34;102938.91;5094833;28;20320;-58
2022/07/08 02:39:14;;;;;;;10.15;2.90;;;;;;;13.78;85.46;102945.94;5095157;28;20028;-58
2022/07/08 02:41:40;;;;;;;8.93;2.78;;;;;;;13.81;85.31;102939.84;5095137;28;20032;-58
2022/07/08 02:44:06;;;;;;;7.53;2.60;;;;;;;13.84;84.90;102947.75;5095049;28;20032;-58
2022/07/08 02:46:32;;;;;;;8.38;2.90;;;;;;;13.79;85.38;102938.94;5095176;28;20032;-58
2022/07/08 02:48:57;;;;;;;9.23;2.92;;;;;;;13.79;84.46;102939.81;5094667;28;20039;-58
2022/07/08 02:51:22;;;;;;;6.90;2.78;;;;;;;13.75;85.62;102943.28;5094498;28;20031;-57
2022/07/08 02:53:48;;;;;;;11.55;2.90;;;;;;;13.71;85.58;102938.00;5095065;28;20062;-58
2022/07/08 02:56:13;;;;;;;7.03;2.67;;;;;;;13.73;86.17;102936.25;5095169;28;20082;-57
2022/07/08 02:58:38;;;;;;;8.10;2.58;;;;;;;13.70;85.70;102933.59;5094649;28;20066;-57
2022/07/08 03:01:04;;;;;;;7.32;2.53;;;;;;;13.70;85.76;102944.13;5097786;28;20051;-58
2022/07/08 03:03:29;;;;;;;10.00;3.08;;;;;;;13.66;86.20;102945.88;5098824;28;20415;-58
2022/07/08 03:05:54;;;;;;;8.45;2.75;;;;;;;13.63;86.46;102947.59;5099397;28;20032;-57
2022/07/08 03:08:19;;;;;;;8.95;2.97;;;;;;;13.58;86.68;102945.81;5099078;28;20553;-57
2022/07/08 03:10:45;;;;;;;10.05;2.58;;;;;;;13.59;86.27;102949.31;5098849;28;20040;-57
2022/07/08 03:13:10;;;;;;;8.32;2.72;;;;;;;13.54;86.91;102948.38;5098873;28;20035;-57
2022/07/08 03:15:35;;;;;;;6.10;2.38;;;;;;;13.59;86.71;102951.94;5098655;28;20111;-58
2022/07/08 03:18:01;;;;;;;10.30;3.00;;;;;;;13.63;86.60;102958.13;5098577;28;20093;-58
2022/07/08 03:20:26;;;;;;;9.70;2.78;;;;;;;13.57;86.77;102956.31;5098777;28;20031;-57
2022/07/08 03:22:51;;;;;;;8.35;2.70;;;;;;;13.65;86.74;102948.50;5098765;28;20031;-58
2022/07/08 03:25:17;;;;;;;9.63;3.00;;;;;;;13.63;86.66;102945.84;5098767;28;20035;-57
2022/07/08 03:27:42;;;;;;;6.22;2.42;;;;;;;13.67;86.36;102936.22;5098298;28;20136;-57
2022/07/08 03:30:08;;;;;;;8.07;2.83;;;;;;;13.65;86.18;102943.22;5098399;28;20370;-58
2022/07/08 03:32:33;;;;;;;8.02;2.63;;;;;;;13.62;86.18;102951.09;5098407;28;20043;-58
2022/07/08 03:34:59;;;;;;;9.68;2.95;;;;;;;13.56;86.61;102941.38;5098436;28;20035;-58
2022/07/08 03:37:25;;;;;;;6.40;2.50;;;;;;;13.56;86.62;102962.44;5098034;28;20075;-58
2022/07/08 03:39:51;;;;;;;13.48;3.05;;;;;;;13.57;86.42;102953.69;5098678;28;20028;-58
2022/07/08 03:42:17;;;;;;;8.27;2.53;;;;;;;13.49;86.33;102960.63;5098351;28;20036;-58
2022/07/08 03:44:42;;;;;;;10.63;2.50;;;;;;;13.49;86.71;102966.78;5098355;28;20028;-58
2022/07/08 03:47:08;;;;;;;7.30;2.70;;;;;;;13.50;86.14;102959.78;5098015;28;20100;-58
2022/07/08 03:49:33;;;;;;;8.38;2.70;;;;;;;13.39;87.00;102954.41;5097947;28;20032;-58
2022/07/08 03:51:59;;;;;;;12.07;2.97;;;;;;;13.37;87.21;102950.00;5097916;28;20051;-58
2022/07/08 03:54:25;;;;;;;11.38;2.70;;;;;;;13.28;87.34;102956.06;5097839;28;20039;-57
2022/07/08 03:56:51;;;;;;;10.50;2.78;;;;;;;13.32;86.99;102956.97;5098360;28;20031;-57
2022/07/08 03:59:16;;;;;;;9.70;2.60;;;;;;;13.31;86.62;102964.00;5097757;28;20081;-58
2022/07/08 04:01:41;;;;;;;9.35;2.40;;;;;;;13.27;87.36;102954.31;5097710;28;20042;-58
2022/07/08 04:04:07;;;;;;;7.45;2.42;;;;;;;13.24;87.30;102952.53;5097599;28;20084;-58
2022/07/08 04:06:32;;;;;;;11.13;2.90;;;;;;;13.26;87.77;102957.78;5097776;28;20447;-58
2022/07/08 04:08:57;;;;;;;7.50;2.70;;;;;;;13.27;87.44;102962.19;5097546;28;20032;-58
2022/07/08 04:11:22;;;;;;;12.05;3.28;;;;;;;13.27;87.47;102964.81;5096948;28;20028;-58
2022/07/08 04:13:48;;;;;;;8.57;2.90;;;;;;;13.31;87.31;102953.47;5097184;28;20032;-58
2022/07/08 04:16:13;;;;;;;11.77;3.13;;;;;;;13.32;86.58;102955.25;5097667;28;20020;-58
2022/07/08 04:18:40;;;;;;;11.88;2.80;;;;;;;13.30;87.42;102962.22;5097199;28;20680;-59
2022/07/08 04:21:06;;;;;;;11.60;3.00;;;;;;;13.31;87.41;102960.47;5097468;28;20035;-57
2022/07/08 04:23:32;;;;;;;10.32;3.20;;;;;;;13.27;87.48;102954.31;5097241;28;20035;-58
2022/07/08 04:25:57;;;;;;;9.70;3.50;;;;;;;13.31;87.70;102964.00;5097329;28;20028;-58
2022/07/08 04:28:23;;;;;;;11.38;3.20;;;;;;;13.30;88.16;102953.47;5097329;28;20048;-58
2022/07/08 04:30:48;;;;;;;9.90;3.08;;;;;;;13.30;87.94;102954.34;5097563;28;20028;-58
2022/07/08 04:33:13;;;;;;;8.50;2.83;;;;;;;13.28;88.15;102955.19;5097055;28;20480;-59
2022/07/08 04:35:39;;;;;;;9.40;3.15;;;;;;;13.35;88.07;102965.75;5097243;28;20116;-58
2022/07/08 04:38:04;;;;;;;7.55;3.15;;;;;;;13.38;88.21;102971.06;5096836;28;20106;-58
2022/07/08 04:40:29;;;;;;;8.20;3.22;;;;;;;13.35;88.25;102976.28;5097047;28;20035;-58
2022/07/08 04:42:55;;;;;;;10.10;3.28;;;;;;;13.43;87.47;102982.50;5096978;28;20138;-58
2022/07/08 04:45:21;;;;;;;11.18;3.90;;;;;;;13.40;87.00;102984.22;5096951;28;20350;-58
2022/07/08 04:47:47;;;;;;;10.75;3.47;;;;;;;13.44;87.81;102988.66;5096875;28;20065;-56
2022/07/08 04:50:12;;;;;;;9.35;3.60;;;;;;;13.47;87.86;102989.56;5096294;28;20040;-57
2022/07/08 04:52:37;;;;;;;12.15;3.58;;;;;;;13.50;87.63;102989.59;5096843;28;20024;-58
2022/07/08 04:55:03;;;;;;;10.15;3.90;;;;;;;13.53;87.76;102986.06;5096666;28;20039;-58
2022/07/08 04:57:32;;;;;;;8.68;3.95;;;;;;;13.57;87.09;102998.41;5096484;28;20056;-58
2022/07/08 05:00:00;;;;;;;13.65;4.07;;;;;;;13.58;86.80;102995.78;5096647;28;20419;-58
2022/07/08 05:02:26;;;;;;;8.23;3.70;;;;;;;13.57;86.34;103001.91;5096534;28;20064;-58
2022/07/08 05:04:52;;;;;;;11.10;3.40;;;;;;;13.62;86.75;102996.69;5096443;28;20039;-58
2022/07/08 05:07:18;;;;;;;9.63;3.80;;;;;;;13.61;86.64;102994.94;5096555;28;20028;-58
2022/07/08 05:09:43;;;;;;;12.73;3.70;;;;;;;13.67;86.10;102996.75;5096542;28;20028;-58
2022/07/08 05:12:09;;;;;;;12.43;3.45;;;;;;;13.73;85.84;102994.13;5096974;28;20178;-58
2022/07/08 05:14:34;;;;;;;12.30;3.63;;;;;;;13.78;85.82;103003.84;5096370;28;20028;-58
2022/07/08 05:16:59;;;;;;;12.45;3.40;;;;;;;13.79;85.77;102997.72;5096406;28;20443;-59
2022/07/08 05:19:24;;;;;;;9.52;3.30;;;;;;;13.82;85.75;102997.75;5095942;28;20078;-59
2022/07/08 05:21:49;;;;;;;10.38;3.38;;;;;;;13.89;85.88;103007.44;5096271;28;20048;-59
2022/07/08 05:24:15;;;;;;;10.52;3.40;;;;;;;13.88;85.18;103005.66;5096064;28;20051;-59
2022/07/08 05:26:40;;;;;;;9.77;3.47;;;;;;;13.96;85.39;103013.63;5096087;28;20063;-59
2022/07/08 05:29:05;;;;;;;11.32;3.85;;;;;;;14.00;85.43;103015.44;5096122;28;20038;-59
2022/07/08 05:31:31;;;;;;;14.90;4.25;;;;;;;14.03;85.11;103023.31;5096104;28;20122;-60
2022/07/08 05:33:56;;;;;;;8.02;4.18;;;;;;;14.06;84.79;103018.09;5096673;28;20064;-59
2022/07/08 05:36:22;;;;;;;12.90;4.80;;;;;;;14.08;84.73;103026.88;5095981;28;20034;-59
2022/07/08 05:38:47;;;;;;;10.60;4.40;;;;;;;14.11;84.86;103023.38;5095909;28;20027;-59
2022/07/08 05:41:12;;;;;;;11.15;4.50;;;;;;;14.12;84.51;103019.88;5095691;28;20032;-59
2022/07/08 05:43:38;;;;;;;10.20;4.45;;;;;;;14.12;85.04;103018.13;5095998;28;20032;-59
2022/07/08 05:46:03;;;;;;;14.90;4.53;;;;;;;14.18;84.76;103023.44;5096461;28;20024;-59
2022/07/08 05:48:28;;;;;;;9.02;4.75;;;;;;;14.22;84.50;103027.84;5095617;28;20032;-59
2022/07/08 05:50:54;;;;;;;10.85;4.15;;;;;;;14.35;84.09;103028.81;5095642;28;20024;-59
2022/07/08 05:53:19;;;;;;;12.68;4.50;;;;;;;14.47;83.60;103033.31;5096129;28;20036;-59
2022/07/08 05:55:45;;;;;;;11.70;4.35;;;;;;;14.51;83.41;103038.59;5095678;28;20035;-59
2022/07/08 05:58:10;;;;;;;11.85;4.28;;;;;;;14.55;83.33;103036.84;5094942;28;20056;-60
2022/07/08 06:00:36;;;;;;;7.38;3.33;;;;;;;14.61;83.37;103040.41;5095092;28;20035;-59
2022/07/08 06:03:05;;;;;;;9.73;3.10;;;;;;;14.66;82.87;103035.16;5095281;28;20032;-58
2022/07/08 06:05:33;;;;;;;14.15;3.25;;;;;;;14.77;82.43;103041.34;5095364;28;20064;-59
2022/07/08 06:07:58;;;;;;;9.48;2.65;;;;;;;14.86;82.17;103037.88;5095355;28;20047;-59
2022/07/08 06:10:26;;;;;;;10.15;2.80;;;;;;;14.88;81.62;103044.06;5095634;28;20032;-58
2022/07/08 06:12:51;;;;;;;9.30;2.30;;;;;;;14.89;81.79;103049.31;5095580;28;20042;-58
2022/07/08 06:15:16;;;;;;;12.45;3.15;;;;;;;14.96;81.67;103043.19;5094771;28;20119;-59
2022/07/08 06:17:42;;;;;;;11.32;2.53;;;;;;;14.98;81.54;103046.72;5095114;28;20031;-59
2022/07/08 06:20:08;;;;;;;11.98;2.67;;;;;;;14.96;81.67;103048.47;5095804;28;20085;-59
2022/07/08 06:22:33;;;;;;;6.38;2.33;;;;;;;14.93;81.56;103040.53;5095198;28;20097;-59
2022/07/08 06:24:59;;;;;;;12.13;2.50;;;;;;;15.00;81.51;103045.84;5094473;28;20450;-58
2022/07/08 06:27:25;;;;;;;9.13;1.92;;;;;;;15.01;81.44;103051.13;5094809;28;20056;-61
2022/07/08 06:29:50;;;;;;;13.10;2.10;;;;;;;15.03;81.07;103048.50;5095186;28;20130;-61
2022/07/08 06:32:15;;;;;;;6.87;2.10;;;;;;;15.06;80.86;103048.50;5095007;28;20036;-60
2022/07/08 06:34:41;;;;;;;5.93;1.80;;;;;;;15.07;80.86;103044.97;5094814;28;20740;-58
2022/07/08 06:37:06;;;;;;;12.32;2.55;;;;;;;15.07;80.75;103039.69;5094758;28;20084;-58
2022/07/08 06:39:31;;;;;;;11.23;2.40;;;;;;;15.09;80.70;103043.22;5094813;28;20043;-59
2022/07/08 06:41:57;;;;;;;9.13;2.05;;;;;;;15.13;80.91;103042.34;5094979;28;20032;-60
2022/07/08 06:44:22;;;;;;;7.68;2.10;;;;;;;15.23;81.13;103046.81;5095026;28;20036;-59
2022/07/08 06:46:47;;;;;;;11.93;2.20;;;;;;;15.31;80.24;103055.59;5094838;28;20035;-59
2022/07/08 06:49:13;;;;;;;12.07;2.42;;;;;;;15.41;79.23;103053.88;5095048;28;20109;-58
2022/07/08 06:51:38;;;;;;;9.90;1.80;;;;;;;15.46;78.64;103058.25;5094417;28;20354;-59
2022/07/08 06:56:47;;;;;;;8.00;2.10;;;;;;;15.54;77.90;103053.00;5094774;28;20455;-59
2022/07/08 06:59:13;;;;;;;7.07;1.90;;;;;;;15.61;77.37;103053.03;5094747;28;20035;-59
2022/07/08 07:01:38;;;;;;;6.78;1.90;;;;;;;15.71;77.38;103051.31;5094811;28;20032;-59
2022/07/08 07:04:03;;;;;;;8.95;1.98;;;;;;;15.84;76.98;103046.91;5094524;28;20032;-59
2022/07/08 07:06:29;;;;;;;9.48;2.00;;;;;;;15.86;75.97;103056.59;5093947;28;20028;-58
2022/07/08 07:08:54;;;;;;;6.22;1.85;;;;;;;15.81;75.73;103055.69;5097790;28;20123;-64
2022/07/08 07:11:20;;;;;;;8.40;1.73;;;;;;;15.84;76.28;103055.69;5102345;28;20107;-58
2022/07/08 07:13:47;;;;;;;7.60;1.75;;;;;;;16.02;76.47;103065.38;5110606;28;20044;-59
2022/07/08 07:16:13;;;;;;;8.90;1.90;;;;;;;16.11;75.61;103052.16;5094639;28;20439;-58
2022/07/08 07:18:38;;;;;;;8.10;1.60;;;;;;;16.09;75.17;103053.06;5094197;28;20122;-59
2022/07/08 07:21:04;;;;;;;9.87;2.10;;;;;;;16.09;75.46;103058.34;5094920;28;20107;-58
2022/07/08 07:23:29;;;;;;;9.20;1.85;;;;;;;16.09;75.34;103058.34;5094736;28;20709;-59
2022/07/08 07:25:55;;;;;;;6.28;1.80;;;;;;;16.08;74.63;103049.53;5094588;28;20066;-59
2022/07/08 07:28:20;;;;;;;6.05;1.80;;;;;;;16.10;74.96;103055.72;5094630;28;20056;-58
2022/07/08 07:30:45;;;;;;;7.45;2.10;;;;;;;16.12;74.89;103055.69;5094346;28;20491;-58
2022/07/08 07:33:11;;;;;;;10.70;2.15;;;;;;;16.10;74.66;103050.41;5094453;28;20363;-58
2022/07/08 07:35:37;;;;;;;8.85;2.30;;;;;;;16.17;75.20;103048.63;5094553;28;20034;-58
2022/07/08 07:38:02;;;;;;;8.10;2.10;;;;;;;16.25;74.82;103053.03;5094317;28;20097;-58
2022/07/08 07:40:28;;;;;;;9.40;1.70;;;;;;;16.30;74.37;103055.66;5094516;28;20055;-58
2022/07/08 07:42:53;;;;;;;8.57;2.13;;;;;;;16.32;73.64;103057.41;5094566;28;20035;-59
2022/07/08 07:45:19;;;;;;;7.70;2.10;;;;;;;16.38;73.90;103053.88;5094293;28;20035;-58
2022/07/08 07:47:44;;;;;;;6.93;2.00;;;;;;;16.43;72.52;103046.84;5096562;28;20047;-59
2022/07/08 07:50:12;;;;;;;7.53;1.70;;;;;;;16.47;73.30;103047.69;5098302;28;20028;-58
2022/07/08 07:52:37;;;;;;;6.13;2.22;;;;;;;16.50;73.39;103051.19;5097780;28;20058;-59
2022/07/08 07:55:03;;;;;;;10.35;2.05;;;;;;;16.60;73.10;103046.78;5097891;28;20103;-59
2022/07/08 07:57:28;;;;;;;11.00;2.78;;;;;;;16.69;72.66;103046.78;5096033;28;20557;-59
2022/07/08 07:59:53;;;;;;;8.70;2.10;;;;;;;16.75;72.24;103045.88;5097003;28;20028;-58
2022/07/08 08:02:19;;;;;;;8.30;2.00;;;;;;;16.82;71.62;103047.59;5097562;28;20379;-58
2022/07/08 08:04:45;;;;;;;7.45;1.90;;;;;;;16.83;70.70;103044.94;5097861;28;20059;-59
2022/07/08 08:07:10;;;;;;;5.82;1.60;;;;;;;16.94;71.75;103044.91;5097885;28;20114;-58
2022/07/08 08:09:36;;;;;;;10.05;1.80;;;;;;;16.98;72.01;103044.88;5097783;28;20036;-59
2022/07/08 08:12:01;;;;;;;8.50;2.03;;;;;;;17.11;71.31;103055.41;5097637;28;20024;-59
2022/07/08 08:14:26;;;;;;;8.35;1.90;;;;;;;17.19;69.40;103041.25;5094469;28;20114;-58
2022/07/08 08:16:52;;;;;;;6.32;2.00;;;;;;;17.18;69.69;103058.00;5106872;27;20036;-58
2022/07/08 08:19:17;;;;;;;6.63;1.88;;;;;;;17.08;70.52;103060.72;5096845;28;20039;-58
2022/07/08 08:21:42;;;;;;;7.55;1.92;;;;;;;16.99;70.55;103051.03;5097073;28;20128;-58
2022/07/08 08:24:08;;;;;;;8.40;1.98;;;;;;;16.95;71.01;103060.78;5097376;28;20024;-58
2022/07/08 08:26:33;;;;;;;5.25;2.10;;;;;;;16.99;70.34;103057.22;5097208;28;20093;-59
2022/07/08 08:28:58;;;;;;;9.68;2.35;;;;;;;16.95;70.39;103059.91;5096850;28;20052;-59
2022/07/08 08:31:24;;;;;;;7.70;2.00;;;;;;;16.87;70.06;103056.41;5097270;28;20063;-59
2022/07/08 08:33:49;;;;;;;3.53;1.60;;;;;;;16.90;69.31;103059.03;5097287;28;20462;-59
2022/07/08 08:36:14;;;;;;;5.95;2.00;;;;;;;16.96;69.16;103059.91;5097464;28;20390;-59
2022/07/08 08:38:40;;;;;;;9.07;2.13;;;;;;;17.00;69.20;103068.69;5097106;28;20093;-57
2022/07/08 08:41:05;;;;;;;7.70;1.73;;;;;;;17.04;70.17;103058.09;5097119;28;20103;-57
2022/07/08 08:43:31;;;;;;;6.72;2.15;;;;;;;17.11;71.25;103058.06;5096703;28;20118;-58
2022/07/08 08:45:56;;;;;;;7.78;1.80;;;;;;;17.10;68.22;103061.59;5096888;28;20031;-57
2022/07/08 08:48:24;;;;;;;7.20;1.70;;;;;;;17.14;68.26;103055.41;5097097;28;20032;-57
2022/07/08 08:50:53;;;;;;;7.68;1.60;;;;;;;17.23;68.74;103050.06;5096698;28;20028;-58
2022/07/08 08:53:24;;;;;;;9.50;1.63;;;;;;;17.29;66.98;103052.66;5096610;28;20114;-57
2022/07/08 08:55:51;;;;;;;7.20;1.92;;;;;;;17.34;67.55;103049.09;5096593;28;20482;-57
2022/07/08 08:58:16;;;;;;;6.72;1.92;;;;;;;17.45;68.36;103040.22;5096071;28;20032;-57
2022/07/08 09:00:43;;;;;;;7.45;1.70;;;;;;;17.69;68.48;103045.34;5096648;28;20028;-57
2022/07/08 09:03:08;;;;;;;7.30;1.85;;;;;;;17.86;66.64;103031.97;5096669;28;20027;-57
2022/07/08 09:05:34;;;;;;;11.65;2.00;;;;;;;18.20;66.70;103028.09;5096518;28;20039;-57
2022/07/08 09:07:59;;;;;;;7.95;1.88;;;;;;;18.38;67.22;103030.56;5096529;28;20035;-57
2022/07/08 09:10:26;;;;;;;8.15;1.75;;;;;;;19.20;63.51;103031.34;5096379;28;20089;-57
2022/07/08 09:13:03;;;;;;;5.07;1.60;;;;;;;20.07;61.98;103016.66;5096278;28;20123;-57
2022/07/08 09:15:35;;;;;;;6.28;1.70;;;;;;;20.85;58.05;103023.97;5096341;28;20028;-58
2022/07/08 09:18:07;;;;;;;6.55;1.60;;;;;;;22.15;55.34;103029.75;5096356;28;20376;-57
2022/07/08 09:20:43;;;;;;;7.22;1.65;;;;;;;22.80;54.66;103027.03;5096386;28;20367;-58
2022/07/08 09:23:12;;;;;;;5.68;1.60;;;;;;;23.07;49.71;103028.84;5096380;28;20070;-58
2022/07/08 09:25:37;;;;;;;7.32;1.90;;;;;;;23.62;48.56;103026.25;5096070;28;20028;-57
2022/07/08 09:28:02;;;;;;;11.52;1.83;;;;;;;24.21;46.20;103026.88;5096156;28;20052;-58
2022/07/08 09:30:31;;;;;;;7.68;2.13;;;;;;;24.49;46.49;103026.75;5095787;28;20071;-58
2022/07/08 09:32:58;;;;;;;7.95;1.80;;;;;;;24.33;44.68;103029.13;5096145;28;20046;-57
2022/07/08 09:35:38;;;;;;;6.78;1.63;;;;;;;23.74;48.04;103018.69;5096212;28;20043;-57
2022/07/08 09:38:05;;;;;;;9.07;1.90;;;;;;;23.67;47.42;103025.19;5095853;28;20064;-58
2022/07/08 09:40:33;;;;;;;7.43;2.08;;;;;;;23.77;49.04;103015.91;5095937;28;20046;-58
2022/07/08 09:43:12;;;;;;;6.63;1.73;;;;;;;23.71;50.40;103010.78;5095902;28;20032;-58
2022/07/08 09:45:38;;;;;;;5.63;1.58;;;;;;;23.40;49.78;103023.38;5096092;28;20024;-58
2022/07/08 09:48:05;;;;;;;10.48;2.05;;;;;;;23.26;50.47;103022.03;5095742;28;20371;-58
2022/07/08 09:50:34;;;;;;;6.63;1.73;;;;;;;23.14;50.06;103027.75;5095548;28;20036;-58
2022/07/08 09:52:59;;;;;;;5.85;1.60;;;;;;;22.83;50.37;103026.94;5095748;28;20349;-58
2022/07/08 09:55:30;;;;;;;5.43;1.73;;;;;;;22.57;52.00;103033.88;5095233;28;20052;-58
2022/07/08 09:57:55;;;;;;;6.47;1.90;;;;;;;22.29;51.44;103011.59;5095771;28;20028;-58
2022/07/08 10:00:20;;;;;;;7.13;1.70;;;;;;;22.30;52.68;103021.34;5095586;28;20100;-58
2022/07/08 10:02:46;;;;;;;7.70;1.85;;;;;;;22.10;52.04;103027.22;5095468;28;20043;-58
2022/07/08 10:05:12;;;;;;;5.47;1.70;;;;;;;22.16;53.00;103026.19;5095036;28;20040;-58
2022/07/08 10:07:38;;;;;;;7.22;1.60;;;;;;;22.24;52.71;103026.81;5095255;28;20107;-58
2022/07/08 10:10:04;;;;;;;6.35;1.70;;;;;;;22.29;51.60;103026.72;5094675;28;20059;-58
2022/07/08 10:12:32;;;;;;;7.03;1.65;;;;;;;22.10;53.28;103026.34;5095494;28;20062;-58
2022/07/08 10:14:57;;;;;;;7.53;1.52;;;;;;;22.33;53.53;103031.94;5095227;28;20409;-58
2022/07/08 10:17:26;;;;;;;6.45;1.70;;;;;;;22.38;52.63;103037.13;5094938;28;20034;-58
2022/07/08 10:19:52;;;;;;;5.63;1.90;;;;;;;22.49;51.60;103035.91;5095850;28;20111;-58
2022/07/08 10:22:19;;;;;;;5.25;1.70;;;;;;;22.60;52.20;103026.72;5095079;28;20024;-58
2022/07/08 10:24:45;;;;;;;8.82;1.90;;;;;;;22.68;53.51;103030.06;5095331;28;20032;-58
2022/07/08 10:27:10;;;;;;;9.98;1.83;;;;;;;22.85;52.45;103034.00;5095184;28;20046;-58
2022/07/08 10:29:39;;;;;;;6.55;1.73;;;;;;;22.97;52.85;103027.41;5095183;28;20058;-58
2022/07/08 10:32:22;;;;;;;7.25;2.08;;;;;;;23.07;52.56;103023.50;5095510;28;20051;-58
2022/07/08 10:35:07;;;;;;;5.65;1.50;;;;;;;23.03;53.25;103013.84;5094746;28;20028;-58
2022/07/08 10:38:05;;;;;;;6.35;2.22;;;;;;;22.92;53.83;103016.84;5077436;28;20332;-58
2022/07/08 10:40:42;;;;;;;6.85;1.65;;;;;;;22.98;52.65;103014.94;5039047;28;20035;-58
2022/07/08 10:43:19;;;;;;;4.70;1.35;;;;;;;22.96;52.59;103022.97;5094804;28;20093;-58
2022/07/08 10:46:05;;;;;;;9.45;2.10;;;;;;;22.96;52.90;103019.44;5095016;28;20132;-58
2022/07/08 10:48:39;;;;;;;7.45;1.95;;;;;;;23.09;52.27;103016.34;5095096;28;20130;-57
2022/07/08 10:51:05;;;;;;;6.80;2.17;;;;;;;23.20;51.51;103014.19;5094932;28;20357;-58
2022/07/08 10:53:54;;;;;;;6.03;1.98;;;;;;;23.21;52.73;103013.25;5094522;28;20177;-58
2022/07/08 10:56:54;;;;;;;5.53;1.85;;;;;;;23.23;52.79;103018.56;5094683;28;20031;-57
2022/07/08 10:59:33;;;;;;;6.88;1.50;;;;;;;23.26;51.16;103013.13;5094531;28;20028;-58
2022/07/08 11:02:15;;;;;;;6.38;1.67;;;;;;;23.32;52.33;103020.97;5094596;28;20111;-58
2022/07/08 11:04:41;;;;;;;5.82;1.40;;;;;;;23.36;50.64;103013.72;5094768;28;20454;-59
2022/07/08 11:09:45;;;;;;;5.45;1.55;;;;;;;23.55;50.21;103020.25;5094574;28;20157;-58
2022/07/08 11:12:24;;;;;;;5.30;1.35;;;;;;;23.36;50.68;103022.63;5094988;28;20028;-58
2022/07/08 11:14:52;;;;;;;5.78;1.58;;;;;;;23.13;50.02;103023.34;5094510;28;20440;-58
2022/07/08 11:17:28;;;;;;;5.70;1.38;;;;;;;23.17;51.70;103016.97;5094835;28;20047;-59
2022/07/08 11:19:56;;;;;;;4.60;1.58;;;;;;;23.15;50.39;103021.50;5094616;28;20027;-58
2022/07/08 11:22:23;;;;;;;5.75;1.60;;;;;;;23.37;50.99;103008.34;5097823;28;20431;-58
2022/07/08 11:24:48;;;;;;;6.15;1.92;;;;;;;23.54;50.35;103002.47;5098834;28;20028;-58